Time;durP1;ratioP1;P1;durP2;ratioP2;P2;SDS_P1;SDS_P2;PMS_P1;PMS_P2;Temp;Humidity;BMP_temperature;BMP_pressure;BME280_temperature;BME280_humidity;BME280_pressure;Samples;Min_cycle;Max_cycle;Signal;HPM_P1;HPM_P2
2021/07/30 00:01:54;;;;;;;4.93;4.10;;;17.30;99.90;;;;;;4859635;29;20029;-72
2021/07/30 00:04:20;;;;;;;4.65;4.10;;;17.30;99.90;;;;;;4859324;29;20129;-73
2021/07/30 00:06:46;;;;;;;7.75;4.55;;;17.30;99.90;;;;;;4859587;29;20045;-72
2021/07/30 00:09:14;;;;;;;4.78;3.95;;;17.30;99.90;;;;;;4859618;29;20108;-73
2021/07/30 00:11:41;;;;;;;5.07;4.22;;;17.30;99.90;;;;;;4859837;29;20033;-72
2021/07/30 00:14:07;;;;;;;5.88;4.43;;;17.20;99.90;;;;;;4859402;29;20064;-73
2021/07/30 00:16:34;;;;;;;5.63;4.30;;;17.20;99.90;;;;;;4859598;29;20517;-73
2021/07/30 00:19:00;;;;;;;6.00;4.60;;;17.20;99.90;;;;;;4859470;29;20029;-72
2021/07/30 00:21:26;;;;;;;5.35;4.05;;;17.30;99.90;;;;;;4859684;29;20104;-75
2021/07/30 00:23:52;;;;;;;6.95;4.57;;;17.30;99.90;;;;;;4859402;29;20029;-75
2021/07/30 00:26:17;;;;;;;5.03;4.53;;;17.30;99.90;;;;;;4859259;29;20045;-76
2021/07/30 00:28:43;;;;;;;7.15;4.25;;;17.30;99.90;;;;;;4859659;29;20086;-76
2021/07/30 00:31:09;;;;;;;6.47;4.75;;;17.30;99.90;;;;;;4861794;29;20030;-76
2021/07/30 00:33:35;;;;;;;4.70;4.30;;;17.30;99.90;;;;;;4863194;29;20435;-75
2021/07/30 00:36:01;;;;;;;5.32;4.25;;;17.30;99.90;;;;;;4862717;29;20029;-75
2021/07/30 00:38:27;;;;;;;7.63;4.50;;;17.20;99.90;;;;;;4862832;29;20030;-75
2021/07/30 00:40:53;;;;;;;6.70;4.75;;;17.20;99.90;;;;;;4862952;29;20074;-75
2021/07/30 00:43:19;;;;;;;5.30;4.28;;;17.20;99.90;;;;;;4862622;29;20629;-73
2021/07/30 00:45:45;;;;;;;4.85;4.35;;;17.20;99.90;;;;;;4862831;29;20054;-73
2021/07/30 00:48:12;;;;;;;6.82;4.53;;;17.20;99.90;;;;;;4862267;29;20046;-74
2021/07/30 00:50:39;;;;;;;7.25;5.03;;;17.20;99.90;;;;;;4862867;29;20390;-74
2021/07/30 00:53:05;;;;;;;8.55;4.32;;;17.20;99.90;;;;;;4862619;29;20041;-74
2021/07/30 00:55:31;;;;;;;5.40;4.47;;;17.20;99.90;;;;;;4862560;29;20029;-73
2021/07/30 00:57:57;;;;;;;5.35;4.85;;;17.10;99.90;;;;;;4862495;29;20033;-73
2021/07/30 01:00:23;;;;;;;6.22;4.20;;;17.10;99.90;;;;;;4862201;29;20037;-73
2021/07/30 01:02:49;;;;;;;5.85;4.45;;;17.10;99.90;;;;;;4862641;29;20022;-73
2021/07/30 01:05:16;;;;;;;5.90;4.40;;;17.00;99.90;;;;;;4862143;29;20045;-74
2021/07/30 01:07:42;;;;;;;6.43;4.85;;;17.10;99.90;;;;;;4862419;29;20108;-75
2021/07/30 01:10:09;;;;;;;5.35;4.47;;;17.00;99.90;;;;;;4862358;29;20450;-75
2021/07/30 01:12:35;;;;;;;4.82;4.32;;;17.00;99.90;;;;;;4862467;29;20030;-75
2021/07/30 01:15:01;;;;;;;6.20;4.95;;;17.00;99.90;;;;;;4862267;29;20049;-75
2021/07/30 01:44:05;;;;;;;9.15;5.03;;;17.00;99.90;;;;;;4861660;29;20463;-74
2021/07/30 01:46:31;;;;;;;7.00;5.03;;;17.00;99.90;;;;;;4861888;29;20056;-73
2021/07/30 01:48:56;;;;;;;7.10;5.30;;;17.00;99.90;;;;;;4861285;29;20049;-75
2021/07/30 01:51:22;;;;;;;5.65;4.85;;;17.00;99.90;;;;;;4861849;29;20121;-75
2021/07/30 01:53:48;;;;;;;7.35;4.97;;;17.00;99.90;;;;;;4861638;29;20386;-75
2021/07/30 01:56:13;;;;;;;8.05;5.35;;;17.00;99.90;;;;;;4861726;29;20077;-75
2021/07/30 01:58:40;;;;;;;9.43;5.50;;;17.10;99.90;;;;;;4861432;29;20475;-75
2021/07/30 02:01:05;;;;;;;8.60;5.55;;;17.10;99.90;;;;;;4861547;29;20032;-75
2021/07/30 02:03:31;;;;;;;6.72;5.30;;;17.00;99.90;;;;;;4861692;29;20034;-76
2021/07/30 02:05:57;;;;;;;7.13;5.03;;;17.10;99.90;;;;;;4861368;29;20051;-75
2021/07/30 02:08:23;;;;;;;8.13;5.20;;;17.10;99.90;;;;;;4861283;29;20096;-76
2021/07/30 02:10:49;;;;;;;7.47;5.47;;;17.10;99.90;;;;;;4861258;29;20037;-76
2021/07/30 02:15:58;;;;;;;9.48;5.78;;;17.20;99.90;;;;;;4861269;29;20044;-74
2021/07/30 02:18:24;;;;;;;6.97;5.30;;;17.10;99.90;;;;;;4861007;29;20026;-74
2021/07/30 02:20:50;;;;;;;9.70;5.35;;;17.20;99.90;;;;;;4861122;29;20070;-74
2021/07/30 02:23:15;;;;;;;8.18;5.45;;;17.20;99.90;;;;;;4861300;29;20028;-74
2021/07/30 02:25:41;;;;;;;8.27;5.20;;;17.20;99.90;;;;;;4860779;29;20391;-74
2021/07/30 02:28:07;;;;;;;9.02;5.93;;;17.20;99.90;;;;;;4860803;29;20033;-74
2021/07/30 02:30:32;;;;;;;8.27;5.85;;;17.30;99.90;;;;;;4860876;29;20085;-74
2021/07/30 02:32:58;;;;;;;8.23;5.38;;;17.30;99.90;;;;;;4860818;29;20029;-74
2021/07/30 02:35:24;;;;;;;6.40;5.25;;;17.30;99.90;;;;;;4861001;29;20092;-74
2021/07/30 02:37:50;;;;;;;8.52;5.43;;;17.30;99.90;;;;;;4860713;29;20037;-76
2021/07/30 02:40:15;;;;;;;6.47;5.00;;;17.30;99.90;;;;;;4860810;29;20076;-73
2021/07/30 02:42:41;;;;;;;7.60;5.70;;;17.30;99.90;;;;;;4860994;29;20029;-72
2021/07/30 02:45:08;;;;;;;8.93;5.35;;;17.30;99.90;;;;;;4860663;29;20390;-72
2021/07/30 02:47:33;;;;;;;8.50;5.90;;;17.40;99.90;;;;;;4860774;29;20052;-72
2021/07/30 02:49:59;;;;;;;12.40;5.38;;;17.40;99.90;;;;;;4860551;29;20025;-72
2021/07/30 02:52:25;;;;;;;7.53;5.53;;;17.40;99.90;;;;;;4860272;29;20454;-72
2021/07/30 02:54:51;;;;;;;7.97;5.38;;;17.40;99.90;;;;;;4860485;29;20037;-72
2021/07/30 02:57:16;;;;;;;11.45;5.97;;;17.40;99.90;;;;;;4860447;29;20470;-72
2021/07/30 02:59:42;;;;;;;8.73;5.93;;;17.40;99.90;;;;;;4860353;29;20057;-72
2021/07/30 03:02:08;;;;;;;8.15;5.80;;;17.40;99.90;;;;;;4860120;29;20063;-72
2021/07/30 03:04:34;;;;;;;9.25;5.85;;;17.40;99.90;;;;;;4860178;29;20026;-72
2021/07/30 03:06:59;;;;;;;10.80;5.72;;;17.50;99.90;;;;;;4860146;29;20061;-72
2021/07/30 03:09:25;;;;;;;11.27;6.05;;;17.50;99.90;;;;;;4860227;29;20466;-73
2021/07/30 03:11:51;;;;;;;9.48;5.55;;;17.60;99.90;;;;;;4860262;29;20041;-73
2021/07/30 03:14:16;;;;;;;7.97;6.25;;;17.60;99.90;;;;;;4860294;29;20112;-73
2021/07/30 03:16:42;;;;;;;9.18;5.80;;;17.60;99.90;;;;;;4860223;29;20025;-73
2021/07/30 03:19:08;;;;;;;9.80;5.93;;;17.60;99.90;;;;;;4860213;29;20026;-73
2021/07/30 03:21:33;;;;;;;8.23;5.63;;;17.60;99.90;;;;;;4859994;29;20037;-74
2021/07/30 03:23:59;;;;;;;7.20;5.38;;;17.60;99.90;;;;;;4859795;29;20045;-74
2021/07/30 03:26:25;;;;;;;10.02;6.45;;;17.60;99.90;;;;;;4859831;29;20104;-72
2021/07/30 03:28:50;;;;;;;10.43;6.07;;;17.70;99.90;;;;;;4860110;29;20037;-72
2021/07/30 03:31:16;;;;;;;11.13;6.88;;;17.70;99.90;;;;;;4860071;29;20054;-72
2021/07/30 03:33:42;;;;;;;7.43;5.75;;;17.70;99.90;;;;;;4860148;29;20045;-72
2021/07/30 03:36:08;;;;;;;10.80;6.45;;;17.70;99.90;;;;;;4859691;29;20061;-74
2021/07/30 03:38:34;;;;;;;8.38;5.90;;;17.70;99.90;;;;;;4860133;29;20029;-74
2021/07/30 03:41:04;;;;;;;9.15;6.18;;;17.70;99.90;;;;;;4859865;29;20029;-74
2021/07/30 03:43:31;;;;;;;11.15;6.57;;;17.70;99.90;;;;;;4859751;29;20041;-75
2021/07/30 03:45:56;;;;;;;9.82;6.57;;;17.80;99.90;;;;;;4859797;29;20393;-75
2021/07/30 03:48:22;;;;;;;9.25;6.15;;;17.80;99.90;;;;;;4859637;29;20132;-75
2021/07/30 03:50:48;;;;;;;11.13;6.63;;;17.80;99.90;;;;;;4859941;29;20029;-75
2021/07/30 03:53:13;;;;;;;10.30;6.45;;;17.80;99.90;;;;;;4859831;29;20531;-72
2021/07/30 03:55:39;;;;;;;11.93;6.60;;;17.80;99.90;;;;;;4859602;29;20033;-71
2021/07/30 03:58:05;;;;;;;8.77;6.60;;;17.80;99.90;;;;;;4859595;29;20033;-75
2021/07/30 04:00:30;;;;;;;10.40;6.78;;;17.80;99.90;;;;;;4859553;29;20041;-73
2021/07/30 04:02:56;;;;;;;9.02;6.65;;;17.90;99.90;;;;;;4859497;29;20077;-74
2021/07/30 04:05:22;;;;;;;14.20;6.78;;;17.90;99.90;;;;;;4862807;29;20037;-74
2021/07/30 04:07:48;;;;;;;12.43;7.60;;;17.80;99.90;;;;;;4863471;29;20061;-73
2021/07/30 04:10:13;;;;;;;10.70;7.40;;;17.80;99.90;;;;;;4863606;29;20045;-74
2021/07/30 04:12:39;;;;;;;11.15;7.10;;;17.90;99.90;;;;;;4863404;29;20472;-73
2021/07/30 04:15:05;;;;;;;14.88;7.25;;;17.90;99.90;;;;;;4863369;29;20109;-73
2021/07/30 04:17:31;;;;;;;13.15;7.35;;;17.90;99.90;;;;;;4863337;29;20036;-73
2021/07/30 04:19:57;;;;;;;13.07;8.55;;;17.90;99.90;;;;;;4863192;29;20108;-73
2021/07/30 04:22:22;;;;;;;11.63;8.00;;;17.90;99.90;;;;;;4863103;29;20030;-73
2021/07/30 04:24:48;;;;;;;10.75;8.15;;;17.90;99.90;;;;;;4862937;29;20089;-73
2021/07/30 04:27:15;;;;;;;13.20;8.30;;;17.90;99.90;;;;;;4862995;29;20411;-73
2021/07/30 04:29:41;;;;;;;12.38;7.78;;;17.80;99.90;;;;;;4863220;29;20072;-75
2021/07/30 04:32:09;;;;;;;13.85;8.73;;;17.80;99.90;;;;;;4862994;29;20034;-75
2021/07/30 04:34:35;;;;;;;13.35;8.38;;;17.90;99.90;;;;;;4863077;29;20406;-74
2021/07/30 04:37:01;;;;;;;13.15;7.53;;;17.90;99.90;;;;;;4863011;29;20082;-70
2021/07/30 04:39:27;;;;;;;13.05;7.97;;;18.10;99.90;;;;;;4862829;29;20025;-72
2021/07/30 04:41:53;;;;;;;13.88;7.95;;;18.40;99.90;;;;;;4862794;29;20029;-72
2021/07/30 04:44:19;;;;;;;12.75;8.20;;;18.20;99.90;;;;;;4844345;29;20034;-73
2021/07/30 04:46:44;;;;;;;16.98;8.90;;;18.20;99.90;;;;;;4844186;29;20483;-73
2021/07/30 04:49:10;;;;;;;16.42;8.70;;;18.20;99.90;;;;;;4844053;29;20060;-74
2021/07/30 04:51:36;;;;;;;24.02;9.98;;;18.10;99.90;;;;;;4844307;29;20034;-74
2021/07/30 04:54:01;;;;;;;20.65;9.93;;;18.10;99.90;;;;;;4844354;29;20062;-71
2021/07/30 04:56:27;;;;;;;17.98;9.50;;;18.40;99.90;;;;;;4844284;29;20025;-73
2021/07/30 04:58:53;;;;;;;14.23;8.77;;;18.40;99.90;;;;;;4844277;29;20534;-74
2021/07/30 05:01:19;;;;;;;13.57;7.60;;;18.60;99.90;;;;;;4843847;29;20049;-76
2021/07/30 05:03:44;;;;;;;12.55;8.30;;;18.70;99.90;;;;;;4843926;29;20030;-72
2021/07/30 05:06:15;;;;;;;13.50;7.93;;;18.60;99.90;;;;;;4843640;29;20133;-71
2021/07/30 05:08:41;;;;;;;14.00;8.15;;;18.40;99.90;;;;;;4844101;29;20139;-71
2021/07/30 05:11:08;;;;;;;17.02;8.30;;;18.40;99.90;;;;;;4843892;29;20101;-71
2021/07/30 05:13:34;;;;;;;13.60;8.70;;;18.40;99.90;;;;;;4843847;29;20391;-71
2021/07/30 05:16:07;;;;;;;12.57;8.05;;;18.30;99.90;;;;;;4843229;29;20199;-74
2021/07/30 05:18:34;;;;;;;13.85;7.75;;;18.30;99.90;;;;;;4844077;29;20394;-73
2021/07/30 05:21:02;;;;;;;13.05;8.10;;;18.30;99.90;;;;;;4843489;29;20030;-73
2021/07/30 05:23:28;;;;;;;13.98;8.43;;;18.30;99.90;;;;;;4843666;29;20368;-73
2021/07/30 05:25:54;;;;;;;12.43;8.27;;;18.40;99.90;;;;;;4843411;29;20041;-73
2021/07/30 05:28:20;;;;;;;10.15;7.60;;;18.30;99.90;;;;;;4843508;29;20037;-73
2021/07/30 05:30:46;;;;;;;14.18;7.85;;;18.30;99.90;;;;;;4843485;29;20026;-73
2021/07/30 05:33:12;;;;;;;12.23;8.43;;;18.30;99.90;;;;;;4843476;29;20057;-73
2021/07/30 05:35:38;;;;;;;12.57;7.80;;;18.40;99.90;;;;;;4843582;29;20086;-73
2021/07/30 05:38:03;;;;;;;13.15;8.20;;;18.50;99.90;;;;;;4843315;29;20033;-73
2021/07/30 05:40:29;;;;;;;13.68;8.40;;;18.50;99.90;;;;;;4843289;29;20113;-74
2021/07/30 05:42:55;;;;;;;12.80;8.25;;;18.50;99.90;;;;;;4843614;29;20022;-73
2021/07/30 05:45:21;;;;;;;13.85;9.05;;;18.50;99.90;;;;;;4843342;29;20416;-71
2021/07/30 05:47:48;;;;;;;15.85;9.05;;;18.50;99.90;;;;;;4843132;29;20414;-74
2021/07/30 05:50:14;;;;;;;16.35;8.85;;;18.40;99.90;;;;;;4843159;29;20049;-72
2021/07/30 05:52:40;;;;;;;13.80;8.77;;;18.30;99.90;;;;;;4843100;29;20125;-73
2021/07/30 05:55:06;;;;;;;17.65;9.05;;;18.30;99.90;;;;;;4843196;29;20105;-72
2021/07/30 05:57:33;;;;;;;12.82;8.30;;;18.30;99.90;;;;;;4843002;29;20032;-75
2021/07/30 06:00:00;;;;;;;15.32;9.05;;;18.30;99.90;;;;;;4842768;29;20045;-74
2021/07/30 06:02:26;;;;;;;16.67;8.68;;;18.40;99.90;;;;;;4843006;29;20030;-73
2021/07/30 06:04:51;;;;;;;18.38;9.10;;;18.50;99.90;;;;;;4843106;29;20041;-76
2021/07/30 06:07:17;;;;;;;14.07;8.13;;;18.50;99.90;;;;;;4842866;29;20036;-79
2021/07/30 06:09:43;;;;;;;15.23;8.80;;;18.30;99.90;;;;;;4842968;29;20378;-79
2021/07/30 06:12:08;;;;;;;16.60;8.90;;;18.20;99.90;;;;;;4842965;29;20034;-75
2021/07/30 06:14:34;;;;;;;16.45;8.55;;;18.20;99.90;;;;;;4842853;29;20514;-75
2021/07/30 06:17:00;;;;;;;16.65;9.02;;;18.10;99.90;;;;;;4842744;29;20571;-75
2021/07/30 06:19:25;;;;;;;12.48;8.45;;;18.20;99.90;;;;;;4842685;29;20049;-75
2021/07/30 06:21:51;;;;;;;15.32;8.35;;;18.20;99.90;;;;;;4842762;29;20113;-74
2021/07/30 06:24:17;;;;;;;15.02;8.45;;;18.20;99.90;;;;;;4842432;29;20498;-75
2021/07/30 06:26:42;;;;;;;13.63;9.10;;;18.10;99.90;;;;;;4842451;29;20113;-75
2021/07/30 06:29:08;;;;;;;18.10;9.75;;;18.10;99.90;;;;;;4841816;29;20479;-75
2021/07/30 06:31:34;;;;;;;18.85;8.93;;;18.00;99.90;;;;;;4842652;29;20042;-75
2021/07/30 06:33:59;;;;;;;14.75;9.07;;;18.00;99.90;;;;;;4842588;29;20166;-75
2021/07/30 06:36:25;;;;;;;15.27;9.05;;;18.00;99.90;;;;;;4842608;29;20034;-75
2021/07/30 06:38:51;;;;;;;20.42;9.23;;;17.90;99.90;;;;;;4842348;29;20482;-76
2021/07/30 06:41:17;;;;;;;18.50;9.73;;;17.90;99.90;;;;;;4842140;29;20026;-75
2021/07/30 06:43:43;;;;;;;16.00;8.80;;;17.90;99.90;;;;;;4842442;29;20034;-74
2021/07/30 06:46:09;;;;;;;15.00;8.90;;;17.90;99.90;;;;;;4841907;29;20044;-74
2021/07/30 06:48:35;;;;;;;17.67;9.73;;;17.90;99.90;;;;;;4842017;29;20444;-76
2021/07/30 06:51:01;;;;;;;16.35;9.05;;;17.90;99.90;;;;;;4841766;29;20040;-78
2021/07/30 06:53:28;;;;;;;17.80;9.32;;;18.00;99.90;;;;;;4842028;29;20030;-78
2021/07/30 06:55:54;;;;;;;14.45;9.60;;;18.00;99.90;;;;;;4841799;29;20490;-84
2021/07/30 06:58:19;;;;;;;16.48;9.43;;;17.90;99.90;;;;;;4842212;29;20034;-82
2021/07/30 07:00:45;;;;;;;16.40;9.27;;;18.00;99.90;;;;;;4842051;29;20121;-79
2021/07/30 07:03:11;;;;;;;13.68;9.43;;;18.00;99.90;;;;;;4842131;29;20037;-78
2021/07/30 07:05:37;;;;;;;16.52;10.18;;;18.00;99.90;;;;;;4841778;29;20038;-79
2021/07/30 07:08:02;;;;;;;21.38;10.13;;;18.00;99.90;;;;;;4841715;29;20029;-78
2021/07/30 07:10:28;;;;;;;19.25;9.95;;;18.00;99.90;;;;;;4841780;29;20026;-79
2021/07/30 07:12:54;;;;;;;19.63;8.55;;;18.00;99.90;;;;;;4841636;29;20026;-79
2021/07/30 07:15:20;;;;;;;17.13;9.82;;;18.10;99.90;;;;;;4841622;29;20033;-79
2021/07/30 07:17:45;;;;;;;16.45;9.85;;;18.10;99.90;;;;;;4842011;29;20029;-79
2021/07/30 07:20:11;;;;;;;17.33;10.02;;;18.00;99.90;;;;;;4841497;29;20110;-79
2021/07/30 07:22:37;;;;;;;17.63;10.60;;;18.00;99.90;;;;;;4841518;29;20041;-79
2021/07/30 07:25:03;;;;;;;15.98;9.75;;;18.00;99.90;;;;;;4841186;29;20032;-78
2021/07/30 07:27:29;;;;;;;18.40;9.75;;;18.00;99.90;;;;;;4841771;29;20124;-79
2021/07/30 07:29:55;;;;;;;20.17;10.32;;;18.00;99.90;;;;;;4841449;29;20029;-78
2021/07/30 07:32:20;;;;;;;17.48;10.02;;;18.00;99.90;;;;;;4841200;29;20042;-78
2021/07/30 07:34:46;;;;;;;18.20;11.60;;;18.00;99.90;;;;;;4841651;29;20029;-79
2021/07/30 07:37:12;;;;;;;20.10;11.13;;;18.00;99.90;;;;;;4841476;29;20042;-78
2021/07/30 07:39:37;;;;;;;18.83;11.15;;;18.10;99.90;;;;;;4841308;29;20036;-78
2021/07/30 07:42:03;;;;;;;18.88;11.63;;;18.10;99.90;;;;;;4841329;29;20433;-79
2021/07/30 07:44:29;;;;;;;18.15;11.30;;;18.10;99.90;;;;;;4841396;29;20034;-78
2021/07/30 07:46:55;;;;;;;16.02;10.13;;;18.10;99.90;;;;;;4841630;29;20517;-79
2021/07/30 07:49:20;;;;;;;17.58;10.32;;;18.10;99.90;;;;;;4858575;29;20052;-77
2021/07/30 07:51:46;;;;;;;17.88;10.85;;;18.00;99.90;;;;;;4859631;29;20499;-77
2021/07/30 07:54:12;;;;;;;21.25;11.45;;;18.10;99.90;;;;;;4859848;29;20033;-77
2021/07/30 07:56:38;;;;;;;23.33;11.10;;;18.10;99.90;;;;;;4859905;29;20068;-77
2021/07/30 07:59:03;;;;;;;19.73;11.05;;;18.10;99.90;;;;;;4860009;29;20414;-78
2021/07/30 08:01:29;;;;;;;20.38;11.50;;;18.10;99.90;;;;;;4859792;29;20536;-77
2021/07/30 08:03:55;;;;;;;23.02;12.32;;;18.00;99.90;;;;;;4859706;29;20026;-77
2021/07/30 08:06:22;;;;;;;19.52;11.40;;;18.00;99.90;;;;;;4859632;29;20041;-78
2021/07/30 08:08:49;;;;;;;16.42;10.98;;;18.10;99.90;;;;;;4859600;29;20506;-76
2021/07/30 08:11:15;;;;;;;16.45;10.45;;;18.10;99.90;;;;;;4859472;29;20038;-77
2021/07/30 08:13:41;;;;;;;18.20;11.10;;;18.10;99.90;;;;;;4859598;29;20030;-76
2021/07/30 08:16:07;;;;;;;17.55;10.82;;;18.10;99.90;;;;;;4859381;29;20571;-77
2021/07/30 08:18:33;;;;;;;19.23;10.35;;;18.10;99.90;;;;;;4847081;29;20094;-76
2021/07/30 08:21:02;;;;;;;17.98;9.98;;;18.20;99.90;;;;;;4840872;29;20483;-75
2021/07/30 08:23:29;;;;;;;17.38;10.57;;;18.30;99.90;;;;;;4860396;29;20539;-75
2021/07/30 08:25:54;;;;;;;18.00;10.77;;;18.30;99.90;;;;;;4847658;29;20090;-76
2021/07/30 08:28:20;;;;;;;15.07;10.93;;;18.30;99.90;;;;;;4853995;29;20029;-74
2021/07/30 08:30:46;;;;;;;17.15;10.23;;;18.30;99.90;;;;;;4859463;29;20125;-76
2021/07/30 08:33:12;;;;;;;13.75;10.50;;;18.30;99.90;;;;;;4859385;29;20104;-75
2021/07/30 08:35:38;;;;;;;23.15;9.70;;;18.30;99.90;;;;;;4859755;29;20124;-73
2021/07/30 08:38:03;;;;;;;23.38;10.52;;;18.50;99.90;;;;;;4855923;29;20030;-76
2021/07/30 08:40:32;;;;;;;15.20;10.05;;;19.00;99.90;;;;;;4840769;29;20061;-76
2021/07/30 08:42:58;;;;;;;13.23;9.32;;;19.00;99.90;;;;;;4841124;29;20061;-76
2021/07/30 08:45:24;;;;;;;14.13;9.77;;;18.80;99.90;;;;;;4840948;29;20082;-76
2021/07/30 08:47:51;;;;;;;15.40;10.00;;;18.70;99.90;;;;;;4840747;29;20057;-76
2021/07/30 08:50:16;;;;;;;14.50;10.50;;;18.70;99.90;;;;;;4840655;29;20022;-76
2021/07/30 08:52:43;;;;;;;16.58;9.73;;;18.60;99.90;;;;;;4843900;29;20074;-76
2021/07/30 08:55:11;;;;;;;17.75;10.68;;;18.60;99.90;;;;;;4844122;29;20117;-76
2021/07/30 08:57:37;;;;;;;12.48;9.85;;;18.60;99.90;;;;;;4844049;29;20037;-76
2021/07/30 09:00:11;;;;;;;12.98;9.23;;;18.70;99.90;;;;;;4844095;29;20081;-76
2021/07/30 09:02:37;;;;;;;15.32;9.57;;;18.70;99.90;;;;;;4844202;29;20030;-76
2021/07/30 09:05:29;;;;;;;11.52;9.45;;;18.70;99.90;;;;;;4844148;29;20038;-76
2021/07/30 09:07:56;;;;;;;15.15;10.25;;;18.70;99.90;;;;;;4843891;29;20037;-76
2021/07/30 09:10:42;;;;;;;11.75;9.45;;;18.60;99.90;;;;;;4843955;29;20086;-76
2021/07/30 09:13:28;;;;;;;12.07;9.43;;;18.60;99.90;;;;;;4843653;29;20090;-76
2021/07/30 09:16:01;;;;;;;15.35;9.73;;;18.40;99.90;;;;;;4843437;29;20056;-75
2021/07/30 09:18:33;;;;;;;15.60;9.00;;;18.40;99.90;;;;;;4843590;29;20482;-74
2021/07/30 09:21:32;;;;;;;16.17;9.70;;;18.40;99.90;;;;;;4843846;29;20033;-75
2021/07/30 09:24:03;;;;;;;14.32;9.90;;;18.50;99.90;;;;;;4844397;29;20042;-75
2021/07/30 09:26:32;;;;;;;15.85;9.27;;;18.50;99.90;;;;;;4843627;29;20136;-75
2021/07/30 09:29:00;;;;;;;14.30;9.63;;;18.50;99.90;;;;;;4846320;29;20030;-75
2021/07/30 09:31:40;;;;;;;14.52;9.75;;;18.50;99.90;;;;;;4843375;29;20082;-75
2021/07/30 09:34:18;;;;;;;16.02;9.57;;;18.40;99.90;;;;;;4843234;29;20082;-74
2021/07/30 09:36:54;;;;;;;12.20;9.35;;;18.40;99.90;;;;;;4850790;29;20037;-73
2021/07/30 09:39:42;;;;;;;18.13;9.90;;;18.40;99.90;;;;;;4852251;29;20701;-72
2021/07/30 09:42:16;;;;;;;14.02;10.00;;;18.40;99.90;;;;;;4860985;29;20038;-72
2021/07/30 09:44:41;;;;;;;13.38;9.77;;;18.40;99.90;;;;;;4861512;29;20076;-70
2021/07/30 09:47:10;;;;;;;13.80;9.55;;;18.40;99.90;;;;;;4858696;29;20061;-70
2021/07/30 09:49:45;;;;;;;11.75;9.55;;;18.30;99.90;;;;;;4842693;29;20058;-70
2021/07/30 09:52:15;;;;;;;15.15;8.90;;;18.30;99.90;;;;;;4833983;29;20042;-70
2021/07/30 09:54:47;;;;;;;13.43;8.88;;;18.30;99.90;;;;;;4830280;29;20494;-70
2021/07/30 09:57:15;;;;;;;13.45;8.88;;;18.30;99.90;;;;;;4842491;29;20109;-70
2021/07/30 09:59:43;;;;;;;14.05;8.65;;;18.30;99.90;;;;;;4842905;29;20030;-70
2021/07/30 10:02:13;;;;;;;12.30;8.73;;;18.30;99.90;;;;;;4842250;29;20492;-70
2021/07/30 10:04:39;;;;;;;;;;;18.30;99.90;;;;;;4842920;29;20026;-76
2021/07/30 10:07:06;;;;;;;12.48;9.05;;;18.40;99.90;;;;;;4842767;29;19908;-74
2021/07/30 10:09:32;;;;;;;12.25;8.88;;;18.30;99.90;;;;;;4842690;29;20061;-74
2021/07/30 10:12:00;;;;;;;16.48;9.50;;;18.30;99.90;;;;;;4836230;29;20050;-75
2021/07/30 10:14:29;;;;;;;17.58;8.90;;;18.40;99.90;;;;;;4824635;29;20047;-76
2021/07/30 10:17:02;;;;;;;13.75;9.75;;;18.40;99.90;;;;;;4824271;29;20037;-77
2021/07/30 10:19:31;;;;;;;12.10;9.35;;;18.40;99.90;;;;;;4824211;29;20065;-76
2021/07/30 10:22:03;;;;;;;11.68;8.63;;;18.50;99.90;;;;;;4824568;29;20438;-76
2021/07/30 10:24:34;;;;;;;13.55;8.82;;;18.50;99.90;;;;;;4824074;29;20344;-76
2021/07/30 10:27:02;;;;;;;14.52;9.25;;;18.60;99.90;;;;;;4824099;29;20047;-76
2021/07/30 10:30:04;;;;;;;14.50;8.90;;;18.60;99.90;;;;;;4824221;29;20053;-76
2021/07/30 10:32:50;;;;;;;18.05;9.50;;;18.50;99.90;;;;;;4824360;29;20038;-76
2021/07/30 10:35:41;;;;;;;13.40;9.50;;;18.40;99.90;;;;;;4824079;29;20031;-75
2021/07/30 10:38:18;;;;;;;15.10;9.32;;;18.30;99.90;;;;;;4823919;29;20019;-75
2021/07/30 10:41:08;;;;;;;13.80;9.63;;;18.40;99.90;;;;;;4824312;29;20058;-75
2021/07/30 10:43:49;;;;;;;28.08;9.57;;;18.40;99.90;;;;;;4823817;29;20087;-74
2021/07/30 10:46:16;;;;;;;20.65;10.15;;;18.40;99.90;;;;;;4824079;29;20107;-76
2021/07/30 10:48:43;;;;;;;13.18;9.68;;;18.40;99.90;;;;;;4841096;29;21408;-75
2021/07/30 10:51:21;;;;;;;16.17;10.50;;;18.50;99.90;;;;;;4841580;29;20506;-76
2021/07/30 10:53:54;;;;;;;17.73;11.18;;;18.40;99.90;;;;;;4841847;29;20041;-75
2021/07/30 10:56:19;;;;;;;14.80;9.40;;;18.30;99.90;;;;;;4841881;29;20022;-75
2021/07/30 10:58:45;;;;;;;20.13;10.57;;;18.30;99.90;;;;;;4841704;29;20542;-75
2021/07/30 11:01:23;;;;;;;17.60;10.93;;;18.20;99.90;;;;;;4841832;29;20030;-75
2021/07/30 11:03:51;;;;;;;13.70;10.43;;;18.20;99.90;;;;;;4842015;29;20026;-75
2021/07/30 11:06:50;;;;;;;14.38;10.95;;;18.10;99.90;;;;;;4841641;29;20372;-75
2021/07/30 11:09:19;;;;;;;15.73;11.80;;;18.10;99.90;;;;;;4841485;29;20030;-74
2021/07/30 11:11:52;;;;;;;16.48;11.98;;;18.20;99.90;;;;;;4841958;29;20029;-75
2021/07/30 11:14:24;;;;;;;16.30;11.32;;;18.20;99.90;;;;;;4839185;29;20037;-75
2021/07/30 11:16:54;;;;;;;15.10;11.70;;;18.10;99.90;;;;;;4828740;29;20190;-76
2021/07/30 11:19:23;;;;;;;16.25;11.90;;;18.10;99.90;;;;;;4838454;29;20058;-75
2021/07/30 11:21:49;;;;;;;15.30;10.98;;;18.00;99.90;;;;;;4823772;29;20041;-75
2021/07/30 11:24:15;;;;;;;19.23;11.80;;;18.10;99.90;;;;;;4823512;29;20410;-76
2021/07/30 11:26:41;;;;;;;18.55;13.38;;;18.10;99.90;;;;;;4823317;29;20058;-76
2021/07/30 11:29:15;;;;;;;15.60;12.65;;;18.10;99.90;;;;;;4826325;29;20091;-75
2021/07/30 11:31:59;;;;;;;18.75;12.93;;;18.10;99.90;;;;;;4829651;29;20057;-75
2021/07/30 11:34:35;;;;;;;16.52;12.77;;;18.00;99.90;;;;;;4823533;29;20098;-75
2021/07/30 11:37:07;;;;;;;18.45;13.82;;;18.00;99.90;;;;;;4823568;29;20387;-76
2021/07/30 11:39:38;;;;;;;15.43;12.68;;;17.90;99.90;;;;;;4822225;29;20034;-77
2021/07/30 11:42:05;;;;;;;15.18;12.75;;;18.00;99.90;;;;;;4828621;29;20155;-75
2021/07/30 11:44:50;;;;;;;18.27;13.50;;;18.00;99.90;;;;;;4840142;29;20438;-75
2021/07/30 11:47:18;;;;;;;16.00;12.77;;;18.00;99.90;;;;;;4841434;29;20037;-76
2021/07/30 11:49:45;;;;;;;20.02;13.77;;;18.00;99.90;;;;;;4850174;29;20022;-75
2021/07/30 11:52:21;;;;;;;18.50;13.05;;;18.00;99.90;;;;;;4849255;29;20044;-75
2021/07/30 11:54:47;;;;;;;19.27;13.35;;;18.00;99.90;;;;;;4848441;29;20026;-77
2021/07/30 11:57:27;;;;;;;16.48;12.45;;;18.00;99.90;;;;;;4847185;29;20037;-76
2021/07/30 11:59:53;;;;;;;15.27;12.95;;;17.90;99.90;;;;;;4841167;29;20030;-76
2021/07/30 12:02:23;;;;;;;18.13;13.30;;;18.10;99.90;;;;;;4843600;29;20034;-76
2021/07/30 12:04:50;;;;;;;;;;;18.10;99.90;;;;;;4838034;29;20030;-76
2021/07/30 12:07:21;;;;;;;13.73;12.00;;;18.10;99.90;;;;;;4839005;29;19923;-76
2021/07/30 12:09:50;;;;;;;14.77;12.50;;;18.10;99.90;;;;;;4857457;29;20583;-76
2021/07/30 12:12:17;;;;;;;16.23;12.80;;;18.10;99.90;;;;;;4859365;29;20030;-76
2021/07/30 12:14:48;;;;;;;17.33;13.05;;;18.10;99.90;;;;;;4843245;29;20033;-76
2021/07/30 12:17:15;;;;;;;18.17;13.65;;;18.10;99.90;;;;;;4858384;29;20034;-76
2021/07/30 12:19:41;;;;;;;16.27;12.18;;;18.10;99.90;;;;;;4859508;29;20041;-76
2021/07/30 12:22:08;;;;;;;16.45;11.73;;;18.10;99.90;;;;;;4859066;29;20029;-76
2021/07/30 12:24:46;;;;;;;19.90;12.60;;;18.10;99.90;;;;;;4850228;29;20033;-76
2021/07/30 12:27:17;;;;;;;15.27;12.77;;;18.00;99.90;;;;;;4842178;29;20041;-80
2021/07/30 12:29:45;;;;;;;16.05;12.18;;;18.00;99.90;;;;;;4844301;29;20121;-85
2021/07/30 12:32:21;;;;;;;24.35;11.98;;;18.10;99.90;;;;;;4840654;29;20558;-79
2021/07/30 12:34:53;;;;;;;14.23;11.05;;;18.10;99.90;;;;;;4843294;29;20030;-80
2021/07/30 12:37:20;;;;;;;15.30;11.48;;;18.10;99.90;;;;;;4843065;29;20034;-79
2021/07/30 12:39:53;;;;;;;15.02;11.43;;;18.00;99.90;;;;;;4843684;29;20026;-79
2021/07/30 12:42:24;;;;;;;13.95;10.88;;;18.00;99.90;;;;;;4845212;29;20094;-74
2021/07/30 12:45:14;;;;;;;15.88;11.13;;;18.00;99.90;;;;;;4853294;29;20086;-73
2021/07/30 12:47:48;;;;;;;;;;;18.10;99.90;;;;;;4848718;29;20078;-73
2021/07/30 12:50:30;;;;;;;17.05;11.38;;;18.50;99.90;;;;;;4842749;29;19917;-78
2021/07/30 12:53:10;;;;;;;13.20;10.93;;;19.00;99.90;;;;;;4843107;29;20064;-78
2021/07/30 12:55:54;;;;;;;14.68;11.18;;;18.70;99.90;;;;;;4842861;29;20061;-80
2021/07/30 12:58:26;;;;;;;16.55;11.02;;;18.50;99.90;;;;;;4840583;29;20038;-73
2021/07/30 13:00:52;;;;;;;19.05;10.68;;;18.40;99.90;;;;;;4840918;29;20125;-74
2021/07/30 13:03:18;;;;;;;12.70;9.32;;;18.30;99.90;;;;;;4842809;29;20037;-73
2021/07/30 13:05:51;;;;;;;13.35;9.90;;;18.30;99.90;;;;;;4842810;29;20040;-79
2021/07/30 13:08:21;;;;;;;13.18;10.50;;;18.20;99.90;;;;;;4842686;29;20038;-80
2021/07/30 13:10:47;;;;;;;13.13;9.70;;;18.20;99.90;;;;;;4842605;29;20471;-80
2021/07/30 13:13:16;;;;;;;13.23;9.57;;;18.10;99.90;;;;;;4841348;29;20095;-78